^^
MeteoGriva-Weather Station Historical Data
Daily Summary for July 31, 2020 Units:  Metric    English   Both
Daily Weekly Monthly Yearly Custom
  High: Low: Average:
Temperature: 36.3 °C 25.3 °C 30.7 °C
Dew Point: 25.3 °C 18.9 °C 21.4 °C
Humidity: 73.7% 44.7% 58%
Wind Speed: 11.7km/h 0km/h 1.4km/h
Wind Gust: 24.1km/h - -
Wind- - SSE
Pressure: 1012.2 hPa 1004.1 hPa -
Precipitation: 0.0 mm    
Historical Graphs
 
 
Tabular Data for July 31, 2020
Time Temperature Dew Point Pressure Wind Wind Speed Wind Gust Humidity Rainfall Rate (Hourly) solar
00:04 26.9 °C 20.3 °C 1011.9 hPa Calm     67% 0.0 mm 0 W/m2
00:09 26.9 °C 20.3 °C 1011.9 hPa Calm     67% 0.0 mm 0 W/m2
00:14 26.9 °C 20.3 °C 1011.9 hPa Calm     67% 0.0 mm 0 W/m2
00:19 26.8 °C 20.2 °C 1012.2 hPa Calm     67% 0.0 mm 0 W/m2
00:24 26.8 °C 20.2 °C 1011.9 hPa Calm     67.2% 0.0 mm 0 W/m2
00:29 26.7 °C 20 °C 1012.2 hPa Calm     66.8% 0.0 mm 0 W/m2
00:34 26.7 °C 19.9 °C 1012.2 hPa Calm     66.4% 0.0 mm 0 W/m2
00:39 26.7 °C 20.1 °C 1012.2 hPa Calm     67% 0.0 mm 0 W/m2
00:44 26.6 °C 20 °C 1012.2 hPa Calm     67% 0.0 mm 0 W/m2
00:49 26.4 °C 20 °C 1012.2 hPa Calm     67.8% 0.0 mm 0 W/m2
00:54 26.4 °C 19.9 °C 1012.2 hPa Calm     67.6% 0.0 mm 0 W/m2
00:59 26.4 °C 19.8 °C 1012.2 hPa Calm     67% 0.0 mm 0 W/m2
01:04 26.5 °C 19.8 °C 1012.2 hPa Calm     66.6% 0.0 mm 0 W/m2
01:09 26.7 °C 19.7 °C 1011.9 hPa Calm     65.3% 0.0 mm 0 W/m2
01:14 26.7 °C 19.7 °C 1011.9 hPa Calm     65.2% 0.0 mm 0 W/m2
01:19 26.8 °C 19.9 °C 1011.9 hPa Calm     66.1% 0.0 mm 0 W/m2
01:24 26.7 °C 20.2 °C 1012.2 hPa Calm     67.2% 0.0 mm 0 W/m2
01:29 26.6 °C 19.8 °C 1012.2 hPa Calm     66.6% 0.0 mm 0 W/m2
01:34 26.6 °C 19.8 °C 1012.2 hPa Calm     66.4% 0.0 mm 0 W/m2
01:39 26.7 °C 19.8 °C 1011.9 hPa Calm     66.1% 0.0 mm 0 W/m2
01:44 26.9 °C 20 °C 1012.2 hPa Calm     66% 0.0 mm 0 W/m2
01:49 27.1 °C 20.2 °C 1011.9 hPa Calm     66% 0.0 mm 0 W/m2
01:54 27.1 °C 20.2 °C 1011.9 hPa Calm     66% 0.0 mm 0 W/m2
01:59 27.1 °C 20.3 °C 1011.9 hPa Calm     66.7% 0.0 mm 0 W/m2
02:04 26.9 °C 20.2 °C 1011.9 hPa Calm     67% 0.0 mm 0 W/m2
02:09 26.7 °C 19.9 °C 1011.9 hPa Calm     66.4% 0.0 mm 0 W/m2
02:14 26.7 °C 19.9 °C 1011.9 hPa Calm     66.4% 0.0 mm 0 W/m2
02:19 26.7 °C 19.8 °C 1011.9 hPa Calm     66% 0.0 mm 0 W/m2
02:24 26.8 °C 19.8 °C 1011.9 hPa Calm     66% 0.0 mm 0 W/m2
02:29 26.9 °C 20.1 °C 1011.5 hPa Calm     66.3% 0.0 mm 0 W/m2
02:34 26.8 °C 20.4 °C 1011.5 hPa Calm     67.8% 0.0 mm 0 W/m2
02:39 26.7 °C 20.5 °C 1011.9 hPa Calm     69% 0.0 mm 0 W/m2
02:44 26.4 °C 20.5 °C 1011.5 hPa Calm     70% 0.0 mm 0 W/m2
02:49 25.9 °C 19.8 °C 1011.9 hPa Calm     69.2% 0.0 mm 0 W/m2
02:54 25.9 °C 19.8 °C 1011.5 hPa Calm     69% 0.0 mm 0 W/m2
02:59 25.9 °C 19.7 °C 1011.9 hPa Calm     68.9% 0.0 mm 0 W/m2
03:04 26 °C 19.5 °C 1011.9 hPa Calm     67.4% 0.0 mm 0 W/m2
03:09 26.8 °C 20 °C 1011.9 hPa Calm     66.2% 0.0 mm 0 W/m2
03:14 26.8 °C 19.9 °C 1011.5 hPa Calm     66% 0.0 mm 0 W/m2
03:19 26.8 °C 19.9 °C 1011.5 hPa Calm     66% 0.0 mm 0 W/m2
03:24 26.9 °C 20 °C 1011.5 hPa Calm     66% 0.0 mm 0 W/m2
03:29 26.9 °C 20 °C 1011.5 hPa Calm     66.2% 0.0 mm 0 W/m2
03:34 26.8 °C 20 °C 1011.5 hPa Calm     66.4% 0.0 mm 0 W/m2
03:39 26.8 °C 20.2 °C 1011.5 hPa Calm     67% 0.0 mm 0 W/m2
03:44 26.7 °C 20.1 °C 1011.5 hPa Calm     67% 0.0 mm 0 W/m2
03:49 26.6 °C 19.9 °C 1011.5 hPa Calm     66.7% 0.0 mm 0 W/m2
03:54 26.7 °C 19.8 °C 1011.5 hPa Calm     66% 0.0 mm 0 W/m2
03:59 26.7 °C 19.8 °C 1011.2 hPa Calm     66% 0.0 mm 0 W/m2
04:04 26.7 °C 20 °C 1011.5 hPa Calm     66.7% 0.0 mm 0 W/m2
04:09 26.7 °C 19.8 °C 1011.2 hPa Calm     66.1% 0.0 mm 0 W/m2
04:14 26.7 °C 19.8 °C 1011.5 hPa Calm     66.1% 0.0 mm 0 W/m2
04:19 26.6 °C 20 °C 1011.5 hPa Calm     66.9% 0.0 mm 0 W/m2
04:24 26.6 °C 20 °C 1011.5 hPa Calm     67% 0.0 mm 0 W/m2
04:29 26.3 °C 19.8 °C 1011.5 hPa Calm     67.7% 0.0 mm 0 W/m2
04:34 26.2 °C 19.7 °C 1011.2 hPa Calm     67.3% 0.0 mm 0 W/m2
04:39 26.2 °C 19.7 °C 1011.2 hPa Calm     67.6% 0.0 mm 0 W/m2
04:44 26.2 °C 19.8 °C 1011.5 hPa Calm     68.1% 0.0 mm 0 W/m2
04:49 25.8 °C 19.7 °C 1011.2 hPa Calm     69% 0.0 mm 0 W/m2
04:54 25.8 °C 19.5 °C 1011.2 hPa Calm     68.2% 0.0 mm 0 W/m2
04:59 25.8 °C 19.7 °C 1011.2 hPa Calm     69% 0.0 mm 0 W/m2
05:04 25.8 °C 19.6 °C 1011.2 hPa Calm     68.5% 0.0 mm 0 W/m2
05:09 25.7 °C 19.6 °C 1011.5 hPa Calm     69% 0.0 mm 0 W/m2
05:14 25.7 °C 19.4 °C 1011.5 hPa Calm     68.2% 0.0 mm 0 W/m2
05:19 25.7 °C 19.4 °C 1011.5 hPa Calm     68.2% 0.0 mm 0 W/m2
05:24 25.7 °C 19.6 °C 1011.5 hPa Calm     69% 0.0 mm 0 W/m2
05:29 25.7 °C 19.6 °C 1011.5 hPa Calm     69% 0.0 mm 0 W/m2
05:34 25.7 °C 19.6 °C 1011.5 hPa Calm     69% 0.0 mm 0 W/m2
05:39 25.7 °C 19.6 °C 1011.5 hPa Calm     69% 0.0 mm 0 W/m2
05:44 25.7 °C 19.6 °C 1011.9 hPa Calm     69% 0.0 mm 0 W/m2
05:49 25.7 °C 19.6 °C 1011.5 hPa Calm     69% 0.0 mm 0 W/m2
05:54 25.7 °C 19.4 °C 1011.5 hPa Calm     68.3% 0.0 mm 0 W/m2
05:59 25.7 °C 19.7 °C 1011.5 hPa Calm     69.8% 0.0 mm 0 W/m2
06:09 25.4 °C 19.5 °C 1011.9 hPa Calm     70% 0.0 mm 0 W/m2
06:14 25.3 °C 19.6 °C 1011.9 hPa Calm     70.7% 0.0 mm 0 W/m2
06:19 25.3 °C 19.7 °C 1011.9 hPa Calm     71% 0.0 mm 0 W/m2
06:24 25.3 °C 19.3 °C 1011.9 hPa Calm     69.7% 0.0 mm 2 W/m2
06:29 25.5 °C 19.5 °C 1011.9 hPa Calm     69.6% 0.0 mm 4 W/m2
06:34 25.5 °C 19.6 °C 1011.9 hPa Calm     70% 0.0 mm 8 W/m2
06:39 25.5 °C 19.4 °C 1011.9 hPa Calm     69.2% 0.0 mm 19 W/m2
06:44 25.5 °C 19.3 °C 1011.9 hPa Calm     68.4% 0.0 mm 31 W/m2
06:49 25.9 °C 19.5 °C 1011.5 hPa Calm     68.2% 0.0 mm 49 W/m2
06:54 26 °C 19.6 °C 1011.5 hPa Calm     68% 0.0 mm 68 W/m2
06:59 26 °C 19.6 °C 1011.9 hPa Calm     68% 0.0 mm 87 W/m2
07:04 26 °C 19.7 °C 1011.9 hPa Calm     68% 0.0 mm 103 W/m2
07:09 26.5 °C 20 °C 1011.9 hPa Calm     67.4% 0.0 mm 121 W/m2
07:14 26.6 °C 20.2 °C 1011.9 hPa Calm     68.1% 0.0 mm 138 W/m2
07:19 26.7 °C 20 °C 1011.9 hPa Calm     66.7% 0.0 mm 156 W/m2
07:24 26.9 °C 19.9 °C 1011.5 hPa Calm     65.2% 0.0 mm 173 W/m2
07:29 28.3 °C 20.6 °C 1011.9 hPa Calm     63.1% 0.0 mm 189 W/m2
07:34 29 °C 20.7 °C 1011.9 hPa Calm     60.7% 0.0 mm 206 W/m2
07:39 29.2 °C 20.6 °C 1011.9 hPa Calm     59.9% 0.0 mm 220 W/m2
07:44 29.3 °C 21.4 °C 1011.9 hPa Calm     62.6% 0.0 mm 231 W/m2
07:49 28.8 °C 21.1 °C 1011.9 hPa Calm     63.2% 0.0 mm 241 W/m2
07:54 28.6 °C 20.6 °C 1012.2 hPa Calm     62% 0.0 mm 249 W/m2
07:59 28.6 °C 20.9 °C 1011.9 hPa Calm     63.1% 0.0 mm 256 W/m2
08:04 28.5 °C 21 °C 1012.2 hPa Calm     63.9% 0.0 mm 263 W/m2
08:09 28.4 °C 21.2 °C 1011.9 hPa Calm     65% 0.0 mm 268 W/m2
08:14 28.4 °C 21 °C 1011.9 hPa North 0.2 km/h 4 km/h 64.3% 0.0 mm 273 W/m2
08:19 28.4 °C 21.1 °C 1011.9 hPa Calm     64.7% 0.0 mm 278 W/m2
08:24 28.5 °C 21.2 °C 1011.9 hPa NE 0.6 km/h 7.9 km/h 64.7% 0.0 mm 282 W/m2
08:29 28.7 °C 21.2 °C 1011.9 hPa NNE 0.8 km/h 7.9 km/h 63.8% 0.0 mm 287 W/m2
08:34 28.8 °C 21.1 °C 1011.9 hPa NNE 1 km/h 7.9 km/h 62.9% 0.0 mm 289 W/m2
08:39 28.8 °C 21.2 °C 1011.9 hPa ENE 1.2 km/h 7.9 km/h 63.3% 0.0 mm 294 W/m2
08:44 28.8 °C 21.1 °C 1011.9 hPa NE 1 km/h 7.9 km/h 63% 0.0 mm 299 W/m2
08:49 29.1 °C 21.2 °C 1011.9 hPa NE 0.7 km/h 7.9 km/h 62.6% 0.0 mm 306 W/m2
08:54 29.2 °C 20.9 °C 1011.9 hPa NNW 0.7 km/h 7.9 km/h 61.1% 0.0 mm 312 W/m2
08:59 29.3 °C 20.8 °C 1011.9 hPa NNE 0.1 km/h 7.9 km/h 60.2% 0.0 mm 319 W/m2
09:04 29.4 °C 20.7 °C 1011.9 hPa Calm   4 km/h 59.7% 0.0 mm 325 W/m2
09:09 29.7 °C 20.7 °C 1011.9 hPa Calm   4 km/h 58.8% 0.0 mm 333 W/m2
09:14 29.9 °C 20.6 °C 1011.9 hPa NE 0.5 km/h 7.9 km/h 57.6% 0.0 mm 339 W/m2
09:19 29.9 °C 20.6 °C 1011.9 hPa NE 0.6 km/h 7.9 km/h 57.4% 0.0 mm 345 W/m2
09:24 29.9 °C 20.4 °C 1011.9 hPa NE 1.2 km/h 7.9 km/h 56.7% 0.0 mm 351 W/m2
09:29 30 °C 20.5 °C 1011.5 hPa North 0.3 km/h 7.9 km/h 56.7% 0.0 mm 358 W/m2
09:34 30.2 °C 20.3 °C 1011.5 hPa East 0.2 km/h 7.9 km/h 55.6% 0.0 mm 365 W/m2
09:39 30.3 °C 20.7 °C 1011.5 hPa Calm   4 km/h 56.7% 0.0 mm 373 W/m2
09:44 30.5 °C 20.5 °C 1011.2 hPa Calm     55.6% 0.0 mm 380 W/m2
09:49 31.2 °C 21.1 °C 1011.2 hPa SE 0.2 km/h 4 km/h 55.3% 0.0 mm 389 W/m2
09:54 31.9 °C 21.5 °C 1011.5 hPa SE 0.1 km/h 4 km/h 54.4% 0.0 mm 398 W/m2
09:59 32 °C 21.5 °C 1011.5 hPa Calm   4 km/h 54.2% 0.0 mm 404 W/m2
10:04 32.1 °C 21.9 °C 1011.5 hPa SE 0.7 km/h 7.9 km/h 55.3% 0.0 mm 412 W/m2
10:09 32.2 °C 22 °C 1011.5 hPa SSE 0.7 km/h 4 km/h 55% 0.0 mm 419 W/m2
10:14 32.3 °C 22.1 °C 1011.2 hPa Calm   4 km/h 54.9% 0.0 mm 426 W/m2
10:19 32.3 °C 22.1 °C 1011.2 hPa East 0.2 km/h 4 km/h 55.1% 0.0 mm 433 W/m2
10:24 32.3 °C 22.2 °C 1011.2 hPa Calm     55.1% 0.0 mm 443 W/m2
10:29 32.2 °C 22.5 °C 1011.2 hPa Calm     56.6% 0.0 mm 453 W/m2
10:34 32.2 °C 22.3 °C 1011.2 hPa Calm   4 km/h 55.9% 0.0 mm 458 W/m2
10:39 32.2 °C 22.2 °C 1010.8 hPa Calm   4 km/h 55.6% 0.0 mm 468 W/m2
10:44 32.3 °C 21.9 °C 1010.8 hPa Calm   7.9 km/h 54.2% 0.0 mm 474 W/m2
10:49 33 °C 22.2 °C 1010.8 hPa ESE 0.7 km/h 7.9 km/h 53.1% 0.0 mm 480 W/m2
10:54 33.7 °C 23 °C 1010.8 hPa SE 1 km/h 7.9 km/h 53.6% 0.0 mm 488 W/m2
10:59 33.6 °C 22.9 °C 1011.2 hPa Calm   7.9 km/h 53.7% 0.0 mm 492 W/m2
11:04 33.5 °C 22.4 °C 1010.8 hPa ESE 0.6 km/h 7.9 km/h 52.4% 0.0 mm 500 W/m2
11:09 33.2 °C 22.5 °C 1010.8 hPa SE 1.4 km/h 12.2 km/h 53.3% 0.0 mm 503 W/m2
11:14 32.8 °C 22.1 °C 1010.8 hPa Calm     53.4% 0.0 mm 510 W/m2
11:19 32.8 °C 22.1 °C 1010.8 hPa SSE 0.8 km/h 12.2 km/h 53.4% 0.0 mm 512 W/m2
11:24 32.8 °C 22.5 °C 1010.8 hPa SE 1.2 km/h 12.2 km/h 54.7% 0.0 mm 513 W/m2
11:29 32.8 °C 22.2 °C 1010.5 hPa SSE 1.8 km/h 12.2 km/h 53.9% 0.0 mm 515 W/m2
11:34 33 °C 22.1 °C 1010.5 hPa SE 1.3 km/h 7.9 km/h 52.8% 0.0 mm 519 W/m2
11:39 33.1 °C 22.1 °C 1010.5 hPa ESE 1.3 km/h 7.9 km/h 52.8% 0.0 mm 523 W/m2
11:44 33.2 °C 22.2 °C 1010.5 hPa SE 0.4 km/h 7.9 km/h 52.9% 0.0 mm 528 W/m2
11:49 33.7 °C 22.2 °C 1010.5 hPa Calm   4 km/h 51% 0.0 mm 532 W/m2
11:54 34.4 °C 23 °C 1010.2 hPa ESE 1.6 km/h 12.2 km/h 51.6% 0.0 mm 535 W/m2
11:59 34.3 °C 23.1 °C 1010.2 hPa SSE 2 km/h 12.2 km/h 52.1% 0.0 mm 537 W/m2
12:04 34.3 °C 22.9 °C 1010.2 hPa SSE 4.5 km/h 12.2 km/h 51.8% 0.0 mm 536 W/m2
12:09 34.1 °C 22.7 °C 1010.2 hPa ESE 1.5 km/h 12.2 km/h 51.9% 0.0 mm 538 W/m2
12:14 33.7 °C 22.3 °C 1010.2 hPa SE 1.9 km/h 16.3 km/h 51.3% 0.0 mm 539 W/m2
12:19 33.7 °C 22.5 °C 1010.2 hPa ESE 3.2 km/h 16.3 km/h 51.9% 0.0 mm 540 W/m2
12:24 33.7 °C 22.3 °C 1010.2 hPa Calm   12.2 km/h 51.3% 0.0 mm 544 W/m2
12:29 33.9 °C 22.4 °C 1009.8 hPa ESE 0.9 km/h 12.2 km/h 51.2% 0.0 mm 546 W/m2
12:34 33.9 °C 22.6 °C 1010.2 hPa SE 2.2 km/h 12.2 km/h 51.7% 0.0 mm 543 W/m2
12:39 34 °C 22.4 °C 1009.8 hPa SE 2.1 km/h 12.2 km/h 51.1% 0.0 mm 549 W/m2
12:44 34 °C 22.4 °C 1009.8 hPa SSW 3.2 km/h 12.2 km/h 51% 0.0 mm 547 W/m2
12:49 34.3 °C 22.5 °C 1009.8 hPa SE 1.7 km/h 12.2 km/h 50.6% 0.0 mm 547 W/m2
12:54 34.7 °C 23.1 °C 1009.5 hPa SSE 1.4 km/h 16.3 km/h 51% 0.0 mm 552 W/m2
12:59 34.7 °C 23 °C 1009.1 hPa SSE 2.1 km/h 16.3 km/h 50.7% 0.0 mm 554 W/m2
13:04 34.7 °C 22.8 °C 1009.1 hPa SSE 2.9 km/h 16.3 km/h 50.2% 0.0 mm 554 W/m2
13:09 34.8 °C 22.7 °C 1009.1 hPa SSE 3.5 km/h 12.2 km/h 49.7% 0.0 mm 554 W/m2
13:14 34.8 °C 23.4 °C 1009.1 hPa South 2.6 km/h 12.2 km/h 51.8% 0.0 mm 552 W/m2
13:19 34.8 °C 23.1 °C 1009.1 hPa Calm   7.9 km/h 50.7% 0.0 mm 555 W/m2
13:24 34.8 °C 22.8 °C 1008.8 hPa ESE 1.6 km/h 12.2 km/h 49.9% 0.0 mm 559 W/m2
13:29 34.9 °C 22.9 °C 1008.8 hPa South 1.2 km/h 12.2 km/h 50% 0.0 mm 560 W/m2
13:34 35.7 °C 23.6 °C 1008.8 hPa SSE 3.4 km/h 12.2 km/h 49.7% 0.0 mm 558 W/m2
13:39 35.6 °C 23.7 °C 1008.5 hPa SSE 1.2 km/h 7.9 km/h 50.2% 0.0 mm 559 W/m2
13:44 35.6 °C 23.3 °C 1008.5 hPa SSW 0.2 km/h 7.9 km/h 49.3% 0.0 mm 562 W/m2
13:49 35.6 °C 23.8 °C 1008.5 hPa SSE 3.7 km/h 20.1 km/h 50.9% 0.0 mm 562 W/m2
13:54 35.6 °C 23.8 °C 1008.5 hPa South 6.7 km/h 16.3 km/h 50.8% 0.0 mm 559 W/m2
13:59 35.6 °C 23.5 °C 1008.5 hPa SSE 2.5 km/h 12.2 km/h 49.8% 0.0 mm 560 W/m2
14:04 35.7 °C 24 °C 1008.1 hPa SSE 3.2 km/h 16.3 km/h 51.2% 0.0 mm 565 W/m2
14:09 35.7 °C 24.6 °C 1008.1 hPa SSE 3.4 km/h 16.3 km/h 53.1% 0.0 mm 570 W/m2
14:14 36.1 °C 24.8 °C 1008.5 hPa South 2.8 km/h 16.3 km/h 52.2% 0.0 mm 573 W/m2
14:19 36.1 °C 24.6 °C 1008.1 hPa South 4.9 km/h 16.3 km/h 51.8% 0.0 mm 571 W/m2
14:24 36 °C 24.1 °C 1007.8 hPa SSE 3.4 km/h 16.3 km/h 50.6% 0.0 mm 573 W/m2
14:29 35.9 °C 24.5 °C 1007.8 hPa SE 4.2 km/h 16.3 km/h 51.9% 0.0 mm 579 W/m2
14:34 35.7 °C 24.3 °C 1007.8 hPa SSE 6 km/h 16.3 km/h 52% 0.0 mm 584 W/m2
14:39 35.7 °C 24.4 °C 1007.5 hPa SSE 4.5 km/h 16.3 km/h 52.4% 0.0 mm 576 W/m2
14:44 35.8 °C 24.8 °C 1007.5 hPa SSE 7.9 km/h 16.3 km/h 53.2% 0.0 mm 578 W/m2
14:49 35.7 °C 24.9 °C 1007.5 hPa SSE 8.2 km/h 20.1 km/h 53.8% 0.0 mm 578 W/m2
14:54 35.8 °C 24.3 °C 1007.5 hPa SSE 4.1 km/h 12.2 km/h 51.6% 0.0 mm 604 W/m2
14:59 35.8 °C 23.6 °C 1007.1 hPa SE 2.1 km/h 12.2 km/h 49.7% 0.0 mm 600 W/m2
15:04 35.8 °C 23.6 °C 1007.1 hPa SSE 3.5 km/h 12.2 km/h 49.4% 0.0 mm 572 W/m2
15:09 35.9 °C 23.1 °C 1007.1 hPa South 2.1 km/h 12.2 km/h 47.9% 0.0 mm 580 W/m2
15:14 36.3 °C 24.7 °C 1006.8 hPa SSE 2 km/h 16.3 km/h 51.3% 0.0 mm 123 W/m2
15:19 36.1 °C 25.3 °C 1006.8 hPa SSE 4.5 km/h 16.3 km/h 53.9% 0.0 mm 571 W/m2
15:24 35.9 °C 24.9 °C 1006.8 hPa SSE 4.8 km/h 16.3 km/h 53.2% 0.0 mm 582 W/m2
15:29 35.8 °C 24.7 °C 1006.4 hPa South 7.2 km/h 16.3 km/h 52.8% 0.0 mm 585 W/m2
15:34 35.8 °C 24.6 °C 1006.4 hPa SSE 5.7 km/h 20.1 km/h 52.4% 0.0 mm 576 W/m2
15:39 35.9 °C 24.5 °C 1006.4 hPa South 7.7 km/h 20.1 km/h 52% 0.0 mm 565 W/m2
15:44 35.9 °C 24.5 °C 1006.4 hPa SSE 9.3 km/h 24.1 km/h 52% 0.0 mm 570 W/m2
15:49 35.9 °C 24.6 °C 1006.4 hPa SSE 7.8 km/h 24.1 km/h 52.2% 0.0 mm 569 W/m2
15:54 35.7 °C 24.3 °C 1006.4 hPa SSE 6.8 km/h 20.1 km/h 52% 0.0 mm 572 W/m2
15:59 35.7 °C 24.3 °C 1006.4 hPa South 7.5 km/h 20.1 km/h 52% 0.0 mm 569 W/m2
16:04 35.7 °C 24.3 °C 1005.8 hPa South 11.7 km/h 24.1 km/h 52% 0.0 mm 562 W/m2
16:09 35.8 °C 24.1 °C 1006.1 hPa SE 4.7 km/h 24.1 km/h 51.1% 0.0 mm 553 W/m2
16:14 36 °C 24.3 °C 1005.8 hPa South 10.3 km/h 20.1 km/h 51.1% 0.0 mm 537 W/m2
16:19 36 °C 24.6 °C 1005.8 hPa South 10 km/h 20.1 km/h 52.2% 0.0 mm 532 W/m2
16:24 35.9 °C 24.3 °C 1005.8 hPa South 6 km/h 16.3 km/h 51.3% 0.0 mm 524 W/m2
16:29 35.8 °C 24.2 °C 1005.4 hPa SSE 9.7 km/h 20.1 km/h 51.1% 0.0 mm 524 W/m2
16:34 36 °C 24 °C 1005.4 hPa South 5.3 km/h 20.1 km/h 50.4% 0.0 mm 517 W/m2
16:39 36 °C 23.9 °C 1005.4 hPa South 8.6 km/h 20.1 km/h 50% 0.0 mm 519 W/m2
16:44 36.1 °C 23.8 °C 1005.4 hPa South 8.2 km/h 20.1 km/h 49.4% 0.0 mm 516 W/m2
16:49 36.1 °C 24 °C 1005.4 hPa South 9.2 km/h 20.1 km/h 50% 0.0 mm 509 W/m2
16:54 35.8 °C 23.8 °C 1005.4 hPa SSW 9.4 km/h 20.1 km/h 49.9% 0.0 mm 503 W/m2
16:59 35.7 °C 23.7 °C 1005.4 hPa South 9.2 km/h 20.1 km/h 49.9% 0.0 mm 491 W/m2
17:04 35.7 °C 23.5 °C 1005.4 hPa SSE 8.2 km/h 20.1 km/h 49.4% 0.0 mm 485 W/m2
17:09 35.7 °C 23.4 °C 1005.4 hPa South 7.8 km/h 20.1 km/h 49.2% 0.0 mm 478 W/m2
17:14 35.7 °C 23.3 °C 1005.1 hPa SSE 4.3 km/h 16.3 km/h 49% 0.0 mm 474 W/m2
17:19 35.6 °C 23.2 °C 1005.1 hPa South 7.9 km/h 20.1 km/h 48.8% 0.0 mm 468 W/m2
17:24 35.6 °C 23.3 °C 1005.1 hPa SSW 5 km/h 20.1 km/h 49.1% 0.0 mm 456 W/m2
17:29 35.6 °C 23.2 °C 1005.1 hPa South 3.8 km/h 16.3 km/h 49% 0.0 mm 453 W/m2
17:34 35.4 °C 23.3 °C 1005.1 hPa South 5.9 km/h 16.3 km/h 49.7% 0.0 mm 448 W/m2
17:39 35.4 °C 23.4 °C 1005.1 hPa South 5.9 km/h 16.3 km/h 50% 0.0 mm 443 W/m2
17:44 35.4 °C 23.4 °C 1004.7 hPa South 6 km/h 16.3 km/h 50.1% 0.0 mm 438 W/m2
17:49 35.4 °C 23.4 °C 1004.7 hPa South 8.8 km/h 20.1 km/h 50.2% 0.0 mm 431 W/m2
17:54 35.3 °C 23.4 °C 1004.7 hPa South 4.6 km/h 16.3 km/h 50.4% 0.0 mm 425 W/m2
17:59 35.2 °C 23.3 °C 1004.7 hPa South 5.5 km/h 16.3 km/h 50.1% 0.0 mm 413 W/m2
18:04 35.2 °C 23.2 °C 1004.7 hPa South 7.3 km/h 16.3 km/h 50.1% 0.0 mm 390 W/m2
18:09 35.1 °C 23.1 °C 1004.7 hPa South 4.5 km/h 16.3 km/h 50% 0.0 mm 392 W/m2
18:14 34.9 °C 22.9 °C 1004.4 hPa SSW 0.8 km/h 12.2 km/h 50% 0.0 mm 390 W/m2
18:19 34.9 °C 22.9 °C 1004.4 hPa South 3.5 km/h 12.2 km/h 50.1% 0.0 mm 381 W/m2
18:24 34.8 °C 23.4 °C 1004.4 hPa SSE 4.2 km/h 12.2 km/h 51.4% 0.0 mm 370 W/m2
18:29 34.7 °C 23.5 °C 1004.4 hPa SSE 3.4 km/h 12.2 km/h 52.5% 0.0 mm 93 W/m2
18:34 34 °C 23.1 °C 1004.4 hPa SSE 0.7 km/h 7.9 km/h 53.1% 0.0 mm 89 W/m2
18:39 33.7 °C 23.1 °C 1004.4 hPa South 0.2 km/h 7.9 km/h 54% 0.0 mm 86 W/m2
18:44 33.7 °C 22.6 °C 1004.4 hPa Calm     52.6% 0.0 mm 83 W/m2
18:49 33.6 °C 22.2 °C 1004.4 hPa Calm     51.3% 0.0 mm 82 W/m2
18:54 33.2 °C 22.1 °C 1004.4 hPa Calm     52.2% 0.0 mm 80 W/m2
18:59 33 °C 21.3 °C 1004.4 hPa Calm     50.3% 0.0 mm 78 W/m2
19:04 33 °C 20.3 °C 1004.4 hPa Calm     47.5% 0.0 mm 77 W/m2
19:09 33 °C 19.4 °C 1004.4 hPa Calm     44.8% 0.0 mm 75 W/m2
19:14 33 °C 19.5 °C 1004.4 hPa Calm     45.1% 0.0 mm 72 W/m2
19:19 32.9 °C 19.3 °C 1004.4 hPa Calm     44.7% 0.0 mm 69 W/m2
19:24 32.9 °C 19.4 °C 1004.4 hPa Calm     45% 0.0 mm 67 W/m2
19:29 32.8 °C 19.5 °C 1004.4 hPa Calm     45.4% 0.0 mm 64 W/m2
19:34 32.5 °C 19.1 °C 1004.4 hPa Calm     45.3% 0.0 mm 60 W/m2
19:39 32.2 °C 18.9 °C 1004.4 hPa Calm     45.3% 0.0 mm 58 W/m2
19:44 32.2 °C 19.1 °C 1004.1 hPa Calm     46% 0.0 mm 54 W/m2
19:49 32.2 °C 19.3 °C 1004.4 hPa Calm     46.4% 0.0 mm 50 W/m2
19:54 32 °C 19.1 °C 1004.1 hPa Calm     46.5% 0.0 mm 45 W/m2
19:59 31.9 °C 19.3 °C 1004.4 hPa Calm     47.2% 0.0 mm 40 W/m2
20:04 31.9 °C 19.5 °C 1004.4 hPa Calm     48% 0.0 mm 35 W/m2
20:09 31.9 °C 19.8 °C 1004.1 hPa Calm     48.9% 0.0 mm 29 W/m2
20:14 31.8 °C 20.3 °C 1004.1 hPa Calm     50.6% 0.0 mm 25 W/m2
20:19 31.8 °C 20.4 °C 1004.1 hPa Calm     51.1% 0.0 mm 22 W/m2
20:24 31.8 °C 20.6 °C 1004.4 hPa Calm     51.6% 0.0 mm 18 W/m2
20:29 31.9 °C 20.6 °C 1004.1 hPa Calm     51.3% 0.0 mm 13 W/m2
20:34 31.8 °C 20.4 °C 1004.1 hPa Calm     50.9% 0.0 mm 9 W/m2
20:39 31.8 °C 20.1 °C 1004.1 hPa Calm     50.1% 0.0 mm 5 W/m2
20:44 31.8 °C 20 °C 1004.1 hPa Calm     49.8% 0.0 mm 3 W/m2
20:49 31.7 °C 19.8 °C 1004.1 hPa Calm     49.2% 0.0 mm 0 W/m2
20:54 31.7 °C 19.6 °C 1004.4 hPa Calm     48.9% 0.0 mm 0 W/m2
20:59 31.6 °C 19.6 °C 1004.4 hPa Calm     49.1% 0.0 mm 0 W/m2
21:04 31.5 °C 19.5 °C 1004.4 hPa Calm     48.9% 0.0 mm 0 W/m2
21:09 31.5 °C 19.4 °C 1004.4 hPa Calm     48.6% 0.0 mm 0 W/m2
21:14 31.4 °C 19.5 °C 1004.4 hPa Calm     49.1% 0.0 mm 0 W/m2
21:19 31.2 °C 19.5 °C 1004.7 hPa Calm     50.1% 0.0 mm 0 W/m2
21:24 31.2 °C 20 °C 1004.7 hPa Calm   4 km/h 51.3% 0.0 mm 0 W/m2
21:29 31.1 °C 20 °C 1004.7 hPa Calm     51.4% 0.0 mm 0 W/m2
21:34 31 °C 19.8 °C 1004.7 hPa Calm     51.4% 0.0 mm 0 W/m2
21:39 30.8 °C 19.5 °C 1004.7 hPa Calm     51% 0.0 mm 0 W/m2
21:44 30.9 °C 19.5 °C 1004.7 hPa Calm     50.8% 0.0 mm 0 W/m2
21:49 30.9 °C 19.6 °C 1005.1 hPa Calm     51% 0.0 mm 0 W/m2
21:54 30.9 °C 19.7 °C 1004.7 hPa Calm     51.3% 0.0 mm 0 W/m2
21:59 31.1 °C 19.6 °C 1004.7 hPa Calm     50.6% 0.0 mm 0 W/m2
22:04 31.1 °C 19.7 °C 1005.1 hPa Calm     50.8% 0.0 mm 0 W/m2
22:09 31.1 °C 19.6 °C 1005.1 hPa Calm     50.6% 0.0 mm 0 W/m2
22:14 31 °C 19.8 °C 1005.1 hPa Calm     51.6% 0.0 mm 0 W/m2
22:29 30.5 °C 20.4 °C 1005.4 hPa Calm     55.1% 0.0 mm 0 W/m2
22:34 30.1 °C 20.5 °C 1005.8 hPa NNE 0.5 km/h 4 km/h 56.7% 0.0 mm 0 W/m2
22:39 29.1 °C 21 °C 1005.8 hPa Calm   4 km/h 61.7% 0.0 mm 0 W/m2
22:44 29 °C 22 °C 1005.8 hPa Calm     65.9% 0.0 mm 0 W/m2
22:49 28.8 °C 22.3 °C 1005.8 hPa Calm     68% 0.0 mm 0 W/m2
22:54 28.5 °C 22 °C 1006.1 hPa Calm     68% 0.0 mm 0 W/m2
22:59 27.9 °C 21.7 °C 1006.1 hPa Calm     68.9% 0.0 mm 0 W/m2
23:04 27.9 °C 21.7 °C 1006.4 hPa Calm     69% 0.0 mm 0 W/m2
23:09 27.9 °C 21.7 °C 1006.1 hPa Calm     69.1% 0.0 mm 0 W/m2
23:14 28 °C 22 °C 1006.4 hPa Calm     69.9% 0.0 mm 0 W/m2
23:19 28.1 °C 22.2 °C 1006.4 hPa Calm     70.8% 0.0 mm 0 W/m2
23:24 28 °C 22.6 °C 1006.4 hPa Calm     72.7% 0.0 mm 0 W/m2
23:29 28 °C 22.7 °C 1006.4 hPa Calm     73% 0.0 mm 0 W/m2
23:34 27.8 °C 22.6 °C 1006.4 hPa Calm     73% 0.0 mm 0 W/m2
23:39 27.4 °C 22 °C 1006.4 hPa Calm     72.7% 0.0 mm 0 W/m2
23:44 27.4 °C 21.8 °C 1006.4 hPa Calm     71.6% 0.0 mm 0 W/m2
23:49 27.4 °C 21.8 °C 1006.8 hPa Calm     71.7% 0.0 mm 0 W/m2
23:54 27.4 °C 22.1 °C 1006.8 hPa Calm     73% 0.0 mm 0 W/m2
23:59 27.3 °C 22.2 °C 1006.4 hPa Calm     73.7% 0.0 mm 0 W/m2
Juneau County Weather
Compliments of Weather Underground - 2 mb